createdAt,value
2018-05-18T00:00:40.112Z,10.95
2018-05-18T00:01:40.113Z,10.94
2018-05-18T00:02:40.687Z,10.99
2018-05-18T00:03:40.128Z,11.03
2018-05-18T00:04:40.116Z,11.06
2018-05-18T00:05:40.108Z,11.07
2018-05-18T00:06:40.110Z,11.07
2018-05-18T00:07:40.120Z,10.98
2018-05-18T00:08:40.107Z,11.06
2018-05-18T00:09:40.135Z,11.02
2018-05-18T00:10:40.103Z,10.99
2018-05-18T00:11:40.107Z,11.01
2018-05-18T00:12:40.103Z,11.06
2018-05-18T00:13:40.102Z,11.03
2018-05-18T00:14:40.102Z,10.99
2018-05-18T00:15:40.099Z,10.99
2018-05-18T00:16:40.100Z,10.95
2018-05-18T00:17:40.099Z,10.99
2018-05-18T00:18:40.102Z,11.07
2018-05-18T00:19:40.102Z,11.03
2018-05-18T00:20:40.098Z,11.03
2018-05-18T00:21:40.096Z,11.09
2018-05-18T00:22:40.096Z,11.03
2018-05-18T00:23:40.095Z,11.03
2018-05-18T00:24:40.091Z,11.06
2018-05-18T00:25:40.094Z,11.13
2018-05-18T00:26:40.121Z,11.03
2018-05-18T00:27:40.200Z,11.03
2018-05-18T00:28:40.141Z,11.06
2018-05-18T00:29:40.092Z,11.06
2018-05-18T00:30:40.089Z,11.03
2018-05-18T00:31:40.092Z,11.06
2018-05-18T00:32:40.090Z,11.09
2018-05-18T00:33:40.084Z,10.94
2018-05-18T00:34:40.122Z,10.89
2018-05-18T00:35:40.094Z,10.92
2018-05-18T00:36:40.117Z,10.86
2018-05-18T00:37:40.091Z,10.89
2018-05-18T00:38:40.082Z,10.99
2018-05-18T00:39:40.081Z,10.95
2018-05-18T00:40:40.086Z,10.95
2018-05-18T00:41:40.087Z,10.94
2018-05-18T00:42:40.081Z,10.89
2018-05-18T00:43:40.079Z,10.91
2018-05-18T00:44:40.084Z,10.91
2018-05-18T00:45:40.077Z,10.88
2018-05-18T00:46:40.077Z,10.92
2018-05-18T00:47:40.074Z,10.95
2018-05-18T00:48:40.075Z,10.89
2018-05-18T00:49:40.074Z,10.98
2018-05-18T00:50:40.076Z,10.92
2018-05-18T00:51:40.072Z,10.94
2018-05-18T00:52:40.104Z,10.88
2018-05-18T00:53:40.078Z,10.92
2018-05-18T00:54:40.070Z,10.96
2018-05-18T00:55:40.072Z,10.86
2018-05-18T00:56:40.068Z,10.88
2018-05-18T00:57:40.068Z,10.91
2018-05-18T00:58:40.067Z,10.86
2018-05-18T00:59:40.067Z,10.92
2018-05-18T01:00:40.076Z,10.86
2018-05-18T01:01:40.063Z,10.86
2018-05-18T01:02:40.063Z,10.86
2018-05-18T01:03:40.072Z,10.84
2018-05-18T01:04:40.061Z,10.89
2018-05-18T01:05:40.090Z,10.80
2018-05-18T01:06:40.062Z,10.78
2018-05-18T01:07:40.061Z,10.86
2018-05-18T01:08:40.059Z,10.80
2018-05-18T01:09:40.057Z,10.86
2018-05-18T01:10:40.056Z,10.80
2018-05-18T01:11:40.059Z,10.83
2018-05-18T01:12:40.056Z,10.86
2018-05-18T01:13:40.055Z,10.88
2018-05-18T01:14:40.077Z,10.84
2018-05-18T01:15:40.056Z,10.81
2018-05-18T01:16:40.127Z,10.81
2018-05-18T01:17:40.051Z,10.78
2018-05-18T01:18:40.052Z,10.77
2018-05-18T01:19:40.050Z,10.76
2018-05-18T01:20:40.047Z,10.74
2018-05-18T01:21:40.047Z,10.74
2018-05-18T01:22:40.046Z,10.71
2018-05-18T01:23:40.049Z,10.76
2018-05-18T01:24:40.044Z,10.71
2018-05-18T01:25:40.045Z,10.73
2018-05-18T01:26:40.042Z,10.76
2018-05-18T01:27:40.052Z,10.77
2018-05-18T01:28:40.042Z,10.78
2018-05-18T01:29:40.040Z,10.73
2018-05-18T01:30:40.741Z,10.71
2018-05-18T01:31:40.039Z,10.73
2018-05-18T01:32:40.040Z,10.73
2018-05-18T01:33:40.040Z,10.81
2018-05-18T01:34:40.036Z,10.81
2018-05-18T01:35:40.038Z,10.77
2018-05-18T01:36:40.055Z,10.77
2018-05-18T01:37:40.699Z,10.83
2018-05-18T01:38:40.033Z,10.80
2018-05-18T01:39:40.033Z,10.71
2018-05-18T01:40:40.050Z,10.77
2018-05-18T01:41:40.031Z,10.78
2018-05-18T01:42:40.030Z,10.76
2018-05-18T01:43:40.059Z,10.81
2018-05-18T01:44:40.029Z,10.86
2018-05-18T01:45:40.030Z,10.78
2018-05-18T01:46:40.032Z,10.86
2018-05-18T01:47:40.063Z,10.74
2018-05-18T01:48:40.028Z,10.80
2018-05-18T01:49:40.025Z,10.78
2018-05-18T01:50:40.022Z,10.80
2018-05-18T01:51:40.023Z,10.77
2018-05-18T01:52:40.021Z,10.78
2018-05-18T01:53:40.022Z,10.83
2018-05-18T01:54:40.044Z,10.77
2018-05-18T01:55:40.020Z,10.68
2018-05-18T01:56:40.025Z,10.76
2018-05-18T01:57:40.069Z,10.56
2018-05-18T01:58:40.017Z,10.68
2018-05-18T01:59:40.016Z,10.65
2018-05-18T02:00:40.014Z,10.62
2018-05-18T02:01:40.018Z,10.74
2018-05-18T02:02:40.016Z,10.62
2018-05-18T02:03:40.013Z,10.63
2018-05-18T02:04:40.012Z,10.73
2018-05-18T02:05:40.041Z,10.71
2018-05-18T02:06:40.010Z,10.66
2018-05-18T02:07:40.008Z,10.60
2018-05-18T02:08:40.007Z,10.63
2018-05-18T02:09:40.042Z,10.71
2018-05-18T02:10:40.005Z,10.76
2018-05-18T02:11:40.006Z,10.76
2018-05-18T02:12:40.003Z,10.71
2018-05-18T02:13:40.002Z,10.76
2018-05-18T02:14:40.001Z,10.74
2018-05-18T02:15:40.005Z,10.76
2018-05-18T02:16:40.010Z,10.74
2018-05-18T02:17:40.023Z,10.68
2018-05-18T02:18:40.002Z,10.73
2018-05-18T02:19:40.000Z,10.70
2018-05-18T02:20:40.000Z,10.73
2018-05-18T02:21:39.994Z,10.77
2018-05-18T02:22:39.994Z,10.76
2018-05-18T02:23:39.999Z,10.59
2018-05-18T02:24:39.992Z,10.65
2018-05-18T02:25:39.995Z,10.65
2018-05-18T02:26:40.016Z,10.74
2018-05-18T02:27:40.015Z,10.66
2018-05-18T02:28:39.991Z,10.63
2018-05-18T02:29:39.987Z,10.60
2018-05-18T02:30:39.987Z,10.65
2018-05-18T02:31:40.029Z,10.59
2018-05-18T02:32:40.018Z,10.66
2018-05-18T02:33:40.018Z,10.70
2018-05-18T02:34:39.985Z,10.66
2018-05-18T02:35:39.984Z,10.66
2018-05-18T02:36:39.980Z,10.66
2018-05-18T02:37:39.985Z,10.59
2018-05-18T02:38:39.992Z,10.56
2018-05-18T02:39:39.981Z,10.56
2018-05-18T02:40:39.980Z,10.59
2018-05-18T02:41:39.980Z,10.66
2018-05-18T02:42:39.978Z,10.68
2018-05-18T02:43:39.978Z,10.63
2018-05-18T02:44:40.006Z,10.56
2018-05-18T02:45:40.015Z,10.63
2018-05-18T02:46:39.976Z,10.59
2018-05-18T02:47:39.973Z,10.62
2018-05-18T02:48:40.041Z,10.55
2018-05-18T02:49:40.004Z,10.55
2018-05-18T02:50:39.976Z,10.58
2018-05-18T02:51:39.973Z,10.59
2018-05-18T02:52:39.977Z,10.58
2018-05-18T02:53:39.970Z,10.52
2018-05-18T02:54:40.055Z,10.58
2018-05-18T02:55:39.968Z,10.56
2018-05-18T02:56:39.963Z,10.56
2018-05-18T02:57:39.962Z,10.59
2018-05-18T02:58:39.964Z,10.56
2018-05-18T02:59:39.968Z,10.56
2018-05-18T03:00:39.957Z,10.55
2018-05-18T03:01:39.960Z,10.63
2018-05-18T03:02:39.960Z,10.58
2018-05-18T03:03:39.956Z,10.55
2018-05-18T03:04:39.954Z,10.59
2018-05-18T03:05:39.955Z,10.70
2018-05-18T03:06:39.952Z,10.63
2018-05-18T03:07:39.951Z,10.71
2018-05-18T03:08:39.952Z,10.66
2018-05-18T03:09:39.950Z,10.65
2018-05-18T03:10:39.954Z,10.71
2018-05-18T03:11:39.960Z,10.58
2018-05-18T03:12:39.947Z,10.60
2018-05-18T03:13:39.946Z,10.52
2018-05-18T03:14:39.947Z,10.52
2018-05-18T03:15:39.955Z,10.59
2018-05-18T03:16:39.944Z,10.55
2018-05-18T03:17:39.949Z,10.52
2018-05-18T03:18:39.965Z,10.59
2018-05-18T03:19:39.979Z,10.53
2018-05-18T03:20:39.975Z,10.53
2018-05-18T03:21:39.956Z,10.47
2018-05-18T03:22:39.966Z,10.62
2018-05-18T03:23:39.941Z,10.56
2018-05-18T03:24:39.960Z,10.51
2018-05-18T03:25:39.960Z,10.58
2018-05-18T03:26:39.933Z,10.58
2018-05-18T03:27:39.932Z,10.55
2018-05-18T03:28:39.937Z,10.56
2018-05-18T03:29:39.933Z,10.56
2018-05-18T03:30:39.937Z,10.55
2018-05-18T03:31:39.937Z,10.63
2018-05-18T03:32:39.949Z,10.55
2018-05-18T03:33:39.927Z,10.53
2018-05-18T03:34:39.926Z,10.58
2018-05-18T03:35:39.924Z,10.60
2018-05-18T03:36:39.923Z,10.59
2018-05-18T03:37:39.922Z,10.60
2018-05-18T03:38:39.925Z,10.47
2018-05-18T03:39:39.923Z,10.56
2018-05-18T03:40:39.921Z,10.55
2018-05-18T03:41:39.919Z,10.58
2018-05-18T03:42:39.917Z,10.55
2018-05-18T03:43:39.919Z,10.53
2018-05-18T03:44:39.915Z,10.51
2018-05-18T03:45:39.921Z,10.58
2018-05-18T03:46:39.918Z,10.58
2018-05-18T03:47:39.912Z,10.65
2018-05-18T03:48:39.912Z,10.63
2018-05-18T03:49:39.938Z,10.51
2018-05-18T03:50:39.928Z,10.51
2018-05-18T03:51:39.925Z,10.53
2018-05-18T03:52:39.909Z,10.47
2018-05-18T03:53:39.908Z,10.44
2018-05-18T03:54:39.907Z,10.52
2018-05-18T03:55:39.908Z,10.55
2018-05-18T03:56:39.907Z,10.42
2018-05-18T03:57:39.904Z,10.43
2018-05-18T03:58:39.909Z,10.40
2018-05-18T03:59:39.911Z,10.37
2018-05-18T04:00:39.902Z,10.53
2018-05-18T04:01:39.900Z,10.40
2018-05-18T04:02:39.898Z,10.43
2018-05-18T04:03:39.897Z,10.47
2018-05-18T04:04:39.895Z,10.43
2018-05-18T04:05:39.897Z,10.43
2018-05-18T04:06:39.896Z,10.37
2018-05-18T04:07:39.894Z,10.34
2018-05-18T04:08:39.895Z,10.40
2018-05-18T04:09:39.892Z,10.26
2018-05-18T04:10:39.890Z,10.24
2018-05-18T04:11:39.890Z,10.25
2018-05-18T04:12:39.886Z,10.24
2018-05-18T04:13:39.887Z,10.22
2018-05-18T04:14:39.891Z,10.24
2018-05-18T04:15:39.888Z,10.30
2018-05-18T04:16:39.885Z,10.30
2018-05-18T04:17:39.887Z,10.24
2018-05-18T04:18:39.881Z,10.30
2018-05-18T04:19:39.881Z,10.37
2018-05-18T04:20:39.879Z,10.28
2018-05-18T04:21:39.877Z,10.26
2018-05-18T04:22:39.876Z,10.26
2018-05-18T04:23:39.878Z,10.25
2018-05-18T04:24:39.884Z,10.24
2018-05-18T04:25:39.888Z,10.33
2018-05-18T04:26:39.882Z,10.33
2018-05-18T04:27:39.873Z,10.32
2018-05-18T04:28:39.870Z,10.32
2018-05-18T04:29:39.874Z,10.33
2018-05-18T04:30:39.870Z,10.24
2018-05-18T04:31:39.887Z,10.25
2018-05-18T04:32:39.868Z,10.30
2018-05-18T04:33:39.882Z,10.28
2018-05-18T04:34:39.869Z,10.25
2018-05-18T04:35:39.875Z,10.28
2018-05-18T04:36:39.862Z,10.32
2018-05-18T04:37:39.882Z,10.24
2018-05-18T04:38:39.887Z,10.28
2018-05-18T04:39:39.887Z,10.22
2018-05-18T04:40:39.859Z,10.24
2018-05-18T04:41:39.872Z,10.32
2018-05-18T04:42:39.859Z,10.33
2018-05-18T04:43:39.856Z,10.28
2018-05-18T04:44:39.856Z,10.30
2018-05-18T04:45:39.908Z,10.30
2018-05-18T04:46:39.926Z,10.32
2018-05-18T04:47:39.934Z,10.34
2018-05-18T04:48:39.907Z,10.34
2018-05-18T04:49:39.904Z,10.39
2018-05-18T04:50:39.873Z,10.43
2018-05-18T04:51:39.849Z,10.39
2018-05-18T04:52:39.914Z,10.44
2018-05-18T04:53:39.957Z,10.47
2018-05-18T04:54:39.903Z,10.40
2018-05-18T04:55:39.850Z,10.42
2018-05-18T04:56:39.944Z,10.43
2018-05-18T04:57:39.894Z,10.37
2018-05-18T04:58:39.900Z,10.32
2018-05-18T04:59:39.883Z,10.34
2018-05-18T05:00:39.895Z,10.26
2018-05-18T05:01:39.957Z,10.22
2018-05-18T05:02:39.863Z,10.30
2018-05-18T05:03:52.680Z,10.26
2018-05-18T05:05:37.425Z,10.19
2018-05-18T05:06:37.322Z,10.07
2018-05-18T05:07:37.363Z,10.09
2018-05-18T05:08:38.763Z,10.04
2018-05-18T05:09:37.349Z,10.07
2018-05-18T05:10:37.449Z,10.04
2018-05-18T05:13:11.466Z,10.03
2018-05-18T05:14:11.398Z,10.03
2018-05-18T05:16:10.952Z,9.99
2018-05-18T05:17:10.796Z,10.04
2018-05-18T05:18:10.714Z,10.09
2018-05-18T05:19:10.691Z,10.17
2018-05-18T05:20:10.722Z,10.15
2018-05-18T05:21:10.719Z,10.10
2018-05-18T05:22:10.783Z,10.10
2018-05-18T05:23:10.755Z,10.18
2018-05-18T05:24:10.867Z,10.09
2018-05-18T05:25:10.765Z,10.15
2018-05-18T05:26:10.827Z,10.15
2018-05-18T05:27:10.770Z,10.07
2018-05-18T05:28:12.419Z,10.12
2018-05-18T05:29:11.115Z,10.07
2018-05-18T05:30:12.391Z,10.12
2018-05-18T05:31:10.710Z,10.00
2018-05-18T05:32:12.379Z,9.93
2018-05-18T05:33:10.692Z,9.99
2018-05-18T05:34:10.819Z,9.96
2018-05-18T05:35:10.821Z,9.97
2018-05-18T05:36:10.673Z,9.86
2018-05-18T05:37:10.742Z,9.91
2018-05-18T05:38:10.824Z,9.86
2018-05-18T05:39:12.360Z,9.96
2018-05-18T05:40:10.845Z,9.91
2018-05-18T05:41:10.773Z,9.96
2018-05-18T05:42:12.387Z,9.88
2018-05-18T05:43:10.743Z,9.86
2018-05-18T05:44:10.740Z,10.03
2018-05-18T05:45:10.705Z,9.96
2018-05-18T05:46:10.966Z,10.00
2018-05-18T05:47:10.769Z,10.03
2018-05-18T05:48:10.659Z,10.09
2018-05-18T05:49:10.762Z,10.10
2018-05-18T05:50:10.771Z,10.14
2018-05-18T05:51:12.325Z,10.17
2018-05-18T05:52:10.692Z,10.15
2018-05-18T05:53:10.892Z,10.24
2018-05-18T05:54:10.819Z,10.12
2018-05-18T05:55:10.804Z,10.21
2018-05-18T05:56:10.736Z,10.15
2018-05-18T05:57:10.834Z,10.15
2018-05-18T05:58:10.880Z,10.24
2018-05-18T05:59:10.857Z,10.14
2018-05-18T06:00:10.731Z,10.32
2018-05-18T06:01:10.890Z,10.28
2018-05-18T06:02:12.479Z,10.32
2018-05-18T06:03:13.294Z,10.28
2018-05-18T06:04:12.473Z,10.33
2018-05-18T06:05:10.740Z,10.26
2018-05-18T06:06:10.907Z,10.30
2018-05-18T06:07:12.621Z,10.32
2018-05-18T06:08:10.743Z,10.26
2018-05-18T06:09:11.815Z,10.32
2018-05-18T06:10:10.863Z,10.40
2018-05-18T06:11:12.403Z,10.39
2018-05-18T06:12:10.950Z,10.33
2018-05-18T06:13:10.775Z,10.43
2018-05-18T06:14:12.522Z,10.34
2018-05-18T06:15:10.771Z,10.36
2018-05-18T06:16:12.543Z,10.34
2018-05-18T06:17:12.376Z,10.32
2018-05-18T06:18:12.448Z,10.34
2018-05-18T06:19:12.382Z,10.33
2018-05-18T06:20:12.936Z,10.39
2018-05-18T06:21:12.701Z,10.40
2018-05-18T06:22:16.852Z,10.33
2018-05-18T06:23:10.961Z,10.37
2018-05-18T06:24:13.393Z,10.40
2018-05-18T06:25:13.460Z,10.32
2018-05-18T06:26:12.519Z,10.42
2018-05-18T06:27:10.927Z,10.33
2018-05-18T06:28:12.486Z,10.33
2018-05-18T06:29:10.856Z,10.32
2018-05-18T06:30:10.793Z,10.34
2018-05-18T06:31:10.830Z,10.28
2018-05-18T06:32:27.788Z,10.33
2018-05-18T06:33:11.985Z,10.32
2018-05-18T06:34:11.921Z,10.36
2018-05-18T06:35:12.025Z,10.46
2018-05-18T06:36:21.915Z,10.42
2018-05-18T06:38:09.629Z,10.47
2018-05-18T06:40:38.359Z,10.55
2018-05-18T06:41:37.275Z,10.59
2018-05-18T06:42:37.173Z,10.55
2018-05-18T06:43:37.199Z,10.59
2018-05-18T06:44:37.307Z,10.46
2018-05-18T06:45:38.236Z,10.58
2018-05-18T06:47:05.445Z,10.47
2018-05-18T06:52:52.827Z,10.51
2018-05-18T06:53:39.759Z,10.59
2018-05-18T06:54:54.364Z,10.51
2018-05-18T06:56:46.207Z,10.46
2018-05-18T06:57:35.119Z,10.58
2018-05-18T06:58:59.878Z,10.56
2018-05-18T07:00:32.029Z,10.66
2018-05-18T07:01:31.122Z,10.59
2018-05-18T07:04:15.521Z,10.68
2018-05-18T07:05:37.834Z,10.56
2018-05-18T07:07:09.779Z,10.56
2018-05-18T07:08:18.393Z,10.71
2018-05-18T07:10:04.180Z,10.68
2018-05-18T07:11:04.164Z,10.66
2018-05-18T07:12:58.473Z,10.56
2018-05-18T07:13:58.433Z,10.65
2018-05-18T07:15:54.012Z,10.66
2018-05-18T07:16:54.459Z,10.68
2018-05-18T07:17:53.808Z,10.59
2018-05-18T07:18:53.793Z,10.74
2018-05-18T07:19:53.799Z,10.76
2018-05-18T07:20:53.816Z,10.78
2018-05-18T07:21:53.821Z,10.78
2018-05-18T07:22:53.782Z,10.81
2018-05-18T07:23:53.811Z,10.81
2018-05-18T07:24:53.880Z,10.86
2018-05-18T07:25:53.784Z,10.88
2018-05-18T07:26:53.872Z,10.91
2018-05-18T07:27:53.787Z,10.86
2018-05-18T07:28:54.510Z,10.92
2018-05-18T07:29:53.765Z,10.86
2018-05-18T07:30:53.753Z,10.83
2018-05-18T07:31:53.756Z,10.83
2018-05-18T07:32:53.752Z,10.77
2018-05-18T07:33:54.296Z,10.76
2018-05-18T07:36:35.673Z,10.76
2018-05-18T07:37:35.763Z,10.71
2018-05-18T07:39:30.037Z,10.80
2018-05-18T07:40:30.085Z,10.80
2018-05-18T07:42:24.577Z,10.86
2018-05-18T07:43:24.365Z,10.84
2018-05-18T07:45:18.764Z,11.02
2018-05-18T07:46:18.786Z,11.06
2018-05-18T07:47:18.787Z,11.02
2018-05-18T07:48:18.759Z,11.02
2018-05-18T07:49:18.724Z,11.06
2018-05-18T07:50:18.774Z,11.02
2018-05-18T07:51:18.780Z,10.84
2018-05-18T07:52:18.690Z,10.88
2018-05-18T07:53:18.693Z,10.86
2018-05-18T07:54:18.765Z,10.91
2018-05-18T07:55:18.690Z,10.84
2018-05-18T07:56:19.285Z,10.88
2018-05-18T07:57:18.695Z,10.95
2018-05-18T07:58:18.686Z,10.92
2018-05-18T07:59:18.684Z,11.02
2018-05-18T08:00:18.689Z,11.06
2018-05-18T08:01:18.685Z,11.14
2018-05-18T08:02:18.685Z,11.19
2018-05-18T08:03:18.684Z,11.17
2018-05-18T08:04:18.685Z,11.20
2018-05-18T08:05:18.681Z,11.24
2018-05-18T08:06:18.709Z,11.17
2018-05-18T08:07:18.681Z,11.13
2018-05-18T08:08:18.682Z,11.06
2018-05-18T08:09:18.684Z,11.09
2018-05-18T08:10:18.700Z,11.10
2018-05-18T08:11:18.676Z,11.10
2018-05-18T08:12:18.674Z,11.06
2018-05-18T08:13:18.675Z,11.13
2018-05-18T08:14:18.677Z,11.20
2018-05-18T08:15:18.675Z,11.20
2018-05-18T08:16:18.676Z,11.21
2018-05-18T08:17:18.675Z,11.16
2018-05-18T08:18:18.677Z,11.06
2018-05-18T08:19:18.677Z,11.03
2018-05-18T08:20:18.677Z,11.09
2018-05-18T08:21:18.671Z,11.16
2018-05-18T08:22:18.674Z,11.11
2018-05-18T08:23:18.705Z,11.27
2018-05-18T08:24:18.676Z,11.17
2018-05-18T08:25:18.678Z,11.29
2018-05-18T08:26:18.669Z,11.29
2018-05-18T08:27:18.716Z,11.36
2018-05-18T08:28:18.857Z,11.34
2018-05-18T08:29:18.670Z,11.38
2018-05-18T08:30:18.668Z,11.34
2018-05-18T08:31:18.669Z,11.36
2018-05-18T08:32:18.684Z,11.38
2018-05-18T08:33:18.686Z,11.38
2018-05-18T08:34:18.666Z,11.47
2018-05-18T08:35:18.665Z,11.47
2018-05-18T08:36:18.669Z,11.49
2018-05-18T08:37:18.702Z,11.44
2018-05-18T08:38:18.670Z,11.53
2018-05-18T08:39:18.667Z,11.54
2018-05-18T08:40:18.667Z,11.59
2018-05-18T08:41:18.672Z,11.64
2018-05-18T08:42:18.664Z,11.67
2018-05-18T08:43:18.666Z,11.67
2018-05-18T08:44:18.727Z,11.68
2018-05-18T08:45:18.666Z,11.78
2018-05-18T08:46:18.666Z,11.86
2018-05-18T08:47:18.662Z,11.94
2018-05-18T08:48:18.712Z,11.86
2018-05-18T08:49:18.686Z,11.99
2018-05-18T08:50:18.684Z,11.97
2018-05-18T08:51:18.664Z,12.01
2018-05-18T08:52:18.700Z,11.90
2018-05-18T08:53:18.688Z,11.90
2018-05-18T08:54:18.663Z,12.02
2018-05-18T08:55:18.663Z,12.16
2018-05-18T08:56:18.662Z,12.15
2018-05-18T08:57:18.663Z,12.13
2018-05-18T08:58:18.659Z,12.20
2018-05-18T08:59:18.665Z,12.19
2018-05-18T09:00:18.664Z,12.24
2018-05-18T09:01:18.660Z,12.23
2018-05-18T09:02:18.677Z,12.20
2018-05-18T09:03:18.695Z,12.19
2018-05-18T09:04:18.660Z,12.24
2018-05-18T09:05:18.679Z,12.24
2018-05-18T09:06:18.669Z,12.27
2018-05-18T09:07:18.706Z,12.33
2018-05-18T09:08:18.667Z,12.39
2018-05-18T09:09:18.666Z,12.49
2018-05-18T09:10:18.667Z,12.59
2018-05-18T09:11:18.665Z,12.60
2018-05-18T09:12:18.662Z,12.69
2018-05-18T09:13:18.663Z,12.70
2018-05-18T09:14:18.692Z,12.69
2018-05-18T09:15:18.663Z,12.75
2018-05-18T09:16:18.661Z,12.74
2018-05-18T09:17:18.666Z,12.95
2018-05-18T09:18:18.687Z,12.95
2018-05-18T09:19:18.668Z,13.12
2018-05-18T09:20:18.668Z,13.30
2018-05-18T09:21:18.670Z,13.37
2018-05-18T09:22:18.669Z,13.52
2018-05-18T09:23:18.668Z,13.62
2018-05-18T09:24:18.673Z,13.73
2018-05-18T09:25:18.667Z,13.67
2018-05-18T09:26:18.700Z,13.73
2018-05-18T09:27:18.674Z,13.77
2018-05-18T09:28:18.670Z,13.77
2018-05-18T09:29:18.674Z,13.77
2018-05-18T09:30:18.680Z,13.87
2018-05-18T09:31:18.708Z,13.92
2018-05-18T09:32:18.679Z,13.73
2018-05-18T09:35:42.900Z,13.70
2018-05-18T09:38:23.815Z,13.84
2018-05-18T09:39:34.371Z,13.89
2018-05-18T09:41:19.630Z,13.98
2018-05-18T09:42:19.572Z,13.92
2018-05-18T09:43:19.512Z,13.95
2018-05-18T09:44:19.664Z,13.88
2018-05-18T09:45:19.539Z,13.81
2018-05-18T09:46:19.525Z,13.91
2018-05-18T09:47:19.512Z,13.89
2018-05-18T09:48:19.693Z,13.84
2018-05-18T09:49:19.651Z,13.83
2018-05-18T09:50:19.564Z,13.61
2018-05-18T09:51:19.528Z,13.54
2018-05-18T09:52:19.541Z,13.63
2018-05-18T09:53:19.525Z,13.59
2018-05-18T09:54:19.683Z,13.59
2018-05-18T09:55:19.603Z,13.55
2018-05-18T09:56:19.525Z,13.52
2018-05-18T09:57:19.529Z,13.44
2018-05-18T09:58:19.570Z,13.49
2018-05-18T09:59:19.541Z,13.51
2018-05-18T10:00:19.564Z,13.59
2018-05-18T10:01:19.537Z,13.69
2018-05-18T10:02:19.537Z,13.81
2018-05-18T10:03:19.536Z,13.98
2018-05-18T10:04:19.560Z,14.14
2018-05-18T10:05:19.599Z,14.16
2018-05-18T10:06:21.083Z,14.19
2018-05-18T10:07:19.549Z,14.21
2018-05-18T10:08:19.546Z,14.32
2018-05-18T10:09:19.549Z,14.25
2018-05-18T10:10:19.546Z,14.28
2018-05-18T10:11:19.630Z,14.28
2018-05-18T10:12:19.598Z,14.39
2018-05-18T10:13:19.575Z,14.39
2018-05-18T10:14:19.555Z,14.43
2018-05-18T10:15:19.557Z,14.39
2018-05-18T10:16:19.562Z,14.25
2018-05-18T10:17:19.561Z,14.24
2018-05-18T10:18:19.565Z,14.35
2018-05-18T10:19:19.560Z,14.72
2018-05-18T10:20:19.565Z,14.80
2018-05-18T10:21:19.566Z,14.87
2018-05-18T10:22:19.575Z,14.94
2018-05-18T10:23:19.600Z,14.88
2018-05-18T10:24:19.576Z,15.03
2018-05-18T10:25:19.579Z,14.95
2018-05-18T10:26:19.579Z,14.86
2018-05-18T10:27:19.584Z,14.95
2018-05-18T10:28:19.587Z,14.93
2018-05-18T10:29:19.592Z,14.94
2018-05-18T10:30:19.594Z,15.03
2018-05-18T10:31:19.593Z,15.09
2018-05-18T10:32:19.623Z,15.20
2018-05-18T10:33:19.600Z,15.06
2018-05-18T10:34:19.602Z,15.19
2018-05-18T10:35:19.603Z,15.15
2018-05-18T10:36:19.605Z,15.09
2018-05-18T10:37:19.611Z,15.01
2018-05-18T10:38:19.638Z,15.02
2018-05-18T10:39:19.673Z,14.88
2018-05-18T10:40:19.649Z,14.94
2018-05-18T10:41:19.632Z,15.11
2018-05-18T10:42:19.627Z,15.17
2018-05-18T10:43:19.625Z,15.23
2018-05-18T10:44:19.681Z,15.38
2018-05-18T10:45:19.767Z,15.38
2018-05-18T10:46:19.787Z,15.27
2018-05-18T10:47:19.757Z,15.17
2018-05-18T10:48:19.706Z,15.09
2018-05-18T10:49:19.657Z,15.19
2018-05-18T10:50:19.648Z,15.28
2018-05-18T10:51:19.645Z,15.35
2018-05-18T10:52:19.654Z,15.35
2018-05-18T10:53:19.652Z,15.48
2018-05-18T10:54:19.655Z,15.54
2018-05-18T10:55:19.698Z,15.85
2018-05-18T10:56:19.662Z,16.00
2018-05-18T10:57:19.673Z,15.99
2018-05-18T10:58:19.715Z,16.12
2018-05-18T10:59:19.722Z,16.30
2018-05-18T11:00:19.677Z,16.40
2018-05-18T11:01:19.680Z,16.35
2018-05-18T11:02:19.683Z,16.41
2018-05-18T11:03:19.684Z,16.33
2018-05-18T11:04:19.690Z,16.25
2018-05-18T11:05:19.718Z,16.40
2018-05-18T11:06:19.720Z,16.58
2018-05-18T11:07:19.711Z,16.70
2018-05-18T11:08:19.707Z,16.58
2018-05-18T11:09:19.750Z,16.59
2018-05-18T11:10:19.715Z,16.63
2018-05-18T11:11:19.718Z,16.65
2018-05-18T11:12:19.719Z,16.45
2018-05-18T11:13:19.723Z,16.23
2018-05-18T11:14:19.763Z,16.30
2018-05-18T11:15:19.732Z,16.31
2018-05-18T11:16:19.753Z,16.40
2018-05-18T11:17:19.740Z,16.27
2018-05-18T11:18:19.743Z,16.37
2018-05-18T11:19:19.749Z,16.40
2018-05-18T11:20:19.755Z,16.48
2018-05-18T11:21:19.753Z,16.53
2018-05-18T11:22:19.760Z,16.80
2018-05-18T11:23:19.846Z,17.00
2018-05-18T11:24:19.765Z,17.08
2018-05-18T11:25:19.768Z,17.13
2018-05-18T11:26:19.871Z,17.10
2018-05-18T11:27:19.779Z,17.18
2018-05-18T11:28:19.780Z,17.23
2018-05-18T11:29:19.786Z,17.23
2018-05-18T11:30:19.966Z,17.28
2018-05-18T11:31:19.808Z,17.15
2018-05-18T11:32:19.803Z,17.13
2018-05-18T11:33:19.808Z,17.00
2018-05-18T11:34:19.809Z,16.93
2018-05-18T11:35:19.811Z,16.90
2018-05-18T11:36:19.822Z,16.93
2018-05-18T11:37:19.831Z,16.92
2018-05-18T11:38:19.823Z,16.95
2018-05-18T11:39:19.829Z,16.70
2018-05-18T11:40:19.841Z,16.53
2018-05-18T11:41:19.902Z,16.35
2018-05-18T11:42:19.852Z,16.56
2018-05-18T11:43:19.848Z,16.80
2018-05-18T11:44:19.849Z,17.04
2018-05-18T11:45:19.856Z,17.26
2018-05-18T11:46:19.868Z,17.41
2018-05-18T11:47:19.891Z,17.47
2018-05-18T11:48:19.879Z,17.46
2018-05-18T11:49:19.874Z,17.26
2018-05-18T11:50:19.881Z,17.03
2018-05-18T11:51:19.881Z,16.92
2018-05-18T11:52:19.885Z,16.58
2018-05-18T11:53:19.893Z,16.33
2018-05-18T11:54:19.893Z,16.41
2018-05-18T11:55:19.897Z,16.14
2018-05-18T11:56:19.900Z,15.92
2018-05-18T11:57:19.907Z,15.76
2018-05-18T11:58:19.913Z,15.56
2018-05-18T11:59:19.915Z,15.41
2018-05-18T12:00:19.920Z,15.48
2018-05-18T12:01:19.935Z,15.64
2018-05-18T12:02:19.974Z,15.78
2018-05-18T12:03:19.933Z,15.96
2018-05-18T12:04:19.935Z,16.34
2018-05-18T12:05:19.979Z,16.63
2018-05-18T12:06:19.942Z,16.80
2018-05-18T12:07:19.952Z,17.10
2018-05-18T12:08:19.984Z,17.20
2018-05-18T12:09:19.956Z,17.40
2018-05-18T12:10:19.956Z,17.46
2018-05-18T12:11:19.959Z,17.47
2018-05-18T12:12:19.973Z,17.41
2018-05-18T12:13:20.052Z,17.36
2018-05-18T12:14:19.972Z,17.46
2018-05-18T12:15:19.995Z,17.35
2018-05-18T12:16:19.988Z,17.64
2018-05-18T12:17:20.012Z,17.73
2018-05-18T12:18:21.600Z,17.78
2018-05-18T12:19:20.000Z,17.55
2018-05-18T12:20:21.627Z,17.67
2018-05-18T12:21:20.002Z,17.66
2018-05-18T12:22:20.012Z,17.62
2018-05-18T12:23:20.014Z,17.87
2018-05-18T12:24:20.015Z,17.97
2018-05-18T12:25:20.065Z,18.22
2018-05-18T12:26:20.022Z,18.43
2018-05-18T12:27:20.028Z,18.46
2018-05-18T12:28:20.093Z,18.54
2018-05-18T12:29:20.062Z,18.42
2018-05-18T12:30:20.039Z,18.42
2018-05-18T12:31:20.046Z,18.34
2018-05-18T12:32:20.054Z,18.39
2018-05-18T12:33:20.058Z,18.31
2018-05-18T12:34:20.062Z,18.28
2018-05-18T12:35:20.064Z,18.33
2018-05-18T12:36:20.093Z,18.29
2018-05-18T12:37:20.076Z,18.44
2018-05-18T12:38:20.082Z,18.37
2018-05-18T12:39:20.083Z,18.54
2018-05-18T12:40:28.750Z,18.55
2018-05-18T12:42:16.476Z,18.65
2018-05-18T12:43:15.851Z,18.54
2018-05-18T12:45:10.231Z,18.27
2018-05-18T12:46:10.472Z,18.10
2018-05-18T12:48:04.571Z,18.25
2018-05-18T12:49:04.574Z,18.44
2018-05-18T12:50:59.025Z,18.77
2018-05-18T12:51:58.954Z,18.90
2018-05-18T12:53:53.591Z,18.39
2018-05-18T12:54:53.517Z,18.12
2018-05-18T12:56:48.025Z,18.15
2018-05-18T12:57:47.989Z,18.29
2018-05-18T12:59:42.731Z,18.21
2018-05-18T13:00:42.702Z,18.18
2018-05-18T13:02:37.390Z,17.84
2018-05-18T13:03:37.382Z,17.91
2018-05-18T13:05:31.865Z,17.87
2018-05-18T13:06:31.753Z,17.79
2018-05-18T13:08:26.610Z,17.54
2018-05-18T13:09:27.080Z,17.36
2018-05-18T13:11:20.680Z,17.17
2018-05-18T13:12:20.694Z,16.88
2018-05-18T13:13:20.712Z,17.08
2018-05-18T13:14:20.545Z,17.30
2018-05-18T13:15:20.698Z,17.51
2018-05-18T13:16:22.069Z,17.46
2018-05-18T13:17:20.535Z,17.46
2018-05-18T13:18:20.550Z,17.43
2018-05-18T13:19:20.545Z,17.43
2018-05-18T13:20:20.548Z,17.36
2018-05-18T13:21:20.574Z,17.54
2018-05-18T13:22:20.587Z,17.57
2018-05-18T13:23:20.576Z,17.63
2018-05-18T13:24:20.564Z,17.54
2018-05-18T13:25:20.574Z,17.54
2018-05-18T13:26:20.608Z,17.67
2018-05-18T13:27:20.585Z,17.70
2018-05-18T13:28:20.586Z,17.62
2018-05-18T13:29:20.588Z,17.59
2018-05-18T13:30:20.618Z,17.69
2018-05-18T13:31:20.607Z,17.78